Time;durP1;ratioP1;P1;durP2;ratioP2;P2;SDS_P1;SDS_P2;PMS_P1;PMS_P2;Temp;Humidity;BMP_temperature;BMP_pressure;BME280_temperature;BME280_humidity;BME280_pressure;Samples;Min_cycle;Max_cycle;Signal;HPM_P1;HPM_P2
2022/04/30 00:00:05;;;;;;;;;;;22.00;57.00;;;;;;691656;28;807;-82
2022/04/30 00:00:31;;;;;;;;;;;22.00;56.90;;;;;;691631;28;969;-84
2022/04/30 00:00:52;;;;;;;;;;;22.00;56.80;;;;;;691666;28;807;-85
2022/04/30 00:01:12;;;;;;;;;;;22.00;56.80;;;;;;691714;28;846;-85
2022/04/30 00:01:33;;;;;;;;;;;22.00;56.80;;;;;;691761;28;815;-85
2022/04/30 00:01:53;;;;;;;;;;;22.00;56.80;;;;;;691693;28;898;-84
2022/04/30 00:02:14;;;;;;;;;;;22.00;56.80;;;;;;691607;28;863;-84
2022/04/30 00:02:34;;;;;;;;;;;22.00;56.80;;;;;;691701;28;803;-82
2022/04/30 00:02:59;;;;;;;;;;;22.00;56.90;;;;;;691657;28;877;-87
2022/04/30 00:03:24;;;;;;;;;;;22.00;56.90;;;;;;692136;28;894;-81
2022/04/30 00:03:45;;;;;;;;;;;22.00;56.90;;;;;;688864;28;1277;-82
2022/04/30 00:04:06;;;;;;;;;;;22.00;58.00;;;;;;689357;28;1337;-83
2022/04/30 00:04:26;;;;;;;;;;;22.00;56.90;;;;;;689450;28;863;-84
2022/04/30 00:04:47;;;;;;;;;;;22.00;56.80;;;;;;686229;28;883;-83
2022/04/30 00:05:09;;;;;;;;;;;22.00;56.90;;;;;;686539;28;950;-81
2022/04/30 00:05:33;;;;;;;;;;;22.00;56.80;;;;;;686859;28;843;-87
2022/04/30 00:05:55;;;;;;;;;;;22.00;56.80;;;;;;688969;28;835;-88
2022/04/30 00:06:15;;;;;;;;;;;22.00;56.80;;;;;;688885;28;867;-83
2022/04/30 00:06:36;;;;;;;;;;;22.00;56.90;;;;;;690150;28;787;-83
2022/04/30 00:06:56;;;;;;;;;;;22.00;56.90;;;;;;691767;28;950;-84
2022/04/30 00:07:18;;;;;;;;;;;22.00;56.80;;;;;;691610;28;933;-86
2022/04/30 00:07:39;;;;;;;;;;;22.00;56.80;;;;;;691793;28;807;-86
2022/04/30 00:08:00;;;;;;;;;;;22.00;56.90;;;;;;691600;28;814;-83
2022/04/30 00:08:21;;;;;;;;;;;22.10;56.90;;;;;;691626;28;902;-83
2022/04/30 00:08:41;;;;;;;;;;;22.00;56.90;;;;;;691698;28;838;-83
2022/04/30 00:09:02;;;;;;;;;;;22.00;56.80;;;;;;691717;28;898;-82
2022/04/30 00:09:22;;;;;;;;;;;22.00;56.80;;;;;;691617;28;862;-85
2022/04/30 00:09:44;;;;;;;;;;;22.00;56.80;;;;;;691569;28;902;-87
2022/04/30 00:10:04;;;;;;;;;;;22.00;56.80;;;;;;691715;28;890;-84
2022/04/30 00:10:25;;;;;;;;;;;22.00;56.90;;;;;;692428;28;830;-81
2022/04/30 00:10:46;;;;;;;;;;;22.00;56.90;;;;;;692896;28;902;-81
2022/04/30 00:11:07;;;;;;;;;;;22.00;56.80;;;;;;692692;28;846;-81
2022/04/30 00:11:28;;;;;;;;;;;22.00;56.80;;;;;;692651;28;885;-81
2022/04/30 00:11:48;;;;;;;;;;;22.00;56.80;;;;;;692745;28;869;-82
2022/04/30 00:12:09;;;;;;;;;;;22.00;56.90;;;;;;692692;28;885;-81
2022/04/30 00:12:31;;;;;;;;;;;22.00;56.90;;;;;;689569;28;1108;-81
2022/04/30 00:12:52;;;;;;;;;;;22.00;56.90;;;;;;689861;28;843;-81
2022/04/30 00:13:12;;;;;;;;;;;22.00;57.00;;;;;;689767;28;807;-84
2022/04/30 00:13:36;;;;;;;;;;;22.00;57.20;;;;;;690032;28;791;-81
2022/04/30 00:13:56;;;;;;;;;;;22.00;57.30;;;;;;689865;28;851;-82
2022/04/30 00:14:17;;;;;;;;;;;22.00;57.10;;;;;;690859;28;946;-82
2022/04/30 00:14:38;;;;;;;;;;;22.00;56.90;;;;;;689486;28;1962;-81
2022/04/30 00:14:59;;;;;;;;;;;22.00;56.90;;;;;;689806;28;807;-80
2022/04/30 00:15:20;;;;;;;;;;;22.40;57.40;;;;;;689442;28;942;-80
2022/04/30 00:15:41;;;;;;;;;;;22.00;56.90;;;;;;689653;28;811;-81
2022/04/30 00:16:01;;;;;;;;;;;22.00;56.80;;;;;;689037;28;827;-83
2022/04/30 00:16:22;;;;;;;;;;;22.00;57.30;;;;;;690274;28;871;-81
2022/04/30 00:16:42;;;;;;;;;;;22.00;57.40;;;;;;692620;28;869;-81
2022/04/30 00:17:03;;;;;;;;;;;22.00;57.10;;;;;;692333;28;803;-82
2022/04/30 00:17:24;;;;;;;;;;;22.00;57.10;;;;;;692392;28;792;-83
2022/04/30 00:17:44;;;;;;;;;;;22.00;57.20;;;;;;692155;28;850;-81
2022/04/30 00:18:05;;;;;;;;;;;22.00;57.40;;;;;;692208;28;886;-81
2022/04/30 00:18:26;;;;;;;;;;;22.00;57.20;;;;;;692148;28;835;-81
2022/04/30 00:18:47;;;;;;;;;;;22.00;57.10;;;;;;692168;28;901;-81
2022/04/30 00:19:08;;;;;;;;;;;22.00;57.10;;;;;;692434;28;835;-82
2022/04/30 00:19:29;;;;;;;;;;;22.00;57.10;;;;;;692360;28;795;-81
2022/04/30 00:19:49;;;;;;;;;;;22.00;57.10;;;;;;692400;28;937;-82
2022/04/30 00:20:10;;;;;;;;;;;22.00;57.00;;;;;;692183;28;983;-80
2022/04/30 00:20:32;;;;;;;;;;;22.00;57.00;;;;;;691950;28;942;-83
2022/04/30 00:20:52;;;;;;;;;;;22.00;57.00;;;;;;691963;28;851;-81
2022/04/30 00:21:13;;;;;;;;;;;22.00;57.00;;;;;;692263;28;922;-81
2022/04/30 00:21:34;;;;;;;;;;;22.00;57.00;;;;;;692384;28;783;-80
2022/04/30 00:21:54;;;;;;;;;;;22.00;57.00;;;;;;692247;28;839;-81
2022/04/30 00:22:15;;;;;;;;;;;22.00;57.00;;;;;;692288;28;910;-81
2022/04/30 00:22:35;;;;;;;;;;;22.00;57.00;;;;;;692630;28;822;-80
2022/04/30 00:22:56;;;;;;;;;;;22.10;57.10;;;;;;692049;28;807;-82
2022/04/30 00:23:19;;;;;;;;;;;22.00;57.00;;;;;;692124;28;928;-82
2022/04/30 00:23:40;;;;;;;;;;;22.00;57.00;;;;;;692433;28;807;-82
2022/04/30 00:24:01;;;;;;;;;;;22.00;57.00;;;;;;692353;28;871;-81
2022/04/30 00:24:22;;;;;;;;;;;22.00;57.00;;;;;;693224;28;871;-81
2022/04/30 00:24:44;;;;;;;;;;;22.10;57.00;;;;;;692331;28;716;-80
2022/04/30 00:25:05;;;;;;;;;;;22.10;57.00;;;;;;692492;28;456;-80
2022/04/30 00:25:25;;;;;;;;;;;22.10;56.90;;;;;;692462;28;807;-85
2022/04/30 00:25:54;;;;;;;;;;;22.10;56.90;;;;;;688698;28;1259;-80
2022/04/30 00:26:14;;;;;;;;;;;22.10;57.00;;;;;;689508;28;832;-81
2022/04/30 00:26:35;;;;;;;;;;;22.10;56.90;;;;;;689636;28;799;-84
2022/04/30 00:26:56;;;;;;;;;;;22.10;56.90;;;;;;689281;28;846;-81
2022/04/30 00:27:17;;;;;;;;;;;22.10;56.90;;;;;;689578;28;851;-81
2022/04/30 00:27:37;;;;;;;;;;;22.10;57.00;;;;;;690905;28;764;-81
2022/04/30 00:27:58;;;;;;;;;;;22.10;56.80;;;;;;692131;28;894;-82
2022/04/30 00:28:20;;;;;;;;;;;22.10;56.80;;;;;;692699;28;946;-85
2022/04/30 00:28:41;;;;;;;;;;;22.10;56.80;;;;;;692776;28;846;-80
2022/04/30 00:29:02;;;;;;;;;;;22.10;56.80;;;;;;692737;28;843;-82
2022/04/30 00:29:26;;;;;;;;;;;22.10;56.80;;;;;;692648;28;819;-81
2022/04/30 00:29:47;;;;;;;;;;;22.10;56.80;;;;;;692407;28;830;-81
2022/04/30 00:30:08;;;;;;;;;;;22.10;56.70;;;;;;692743;28;842;-81
2022/04/30 00:30:29;;;;;;;;;;;22.10;56.70;;;;;;692168;28;898;-82
2022/04/30 00:30:50;;;;;;;;;;;22.10;56.70;;;;;;692348;28;799;-82
2022/04/30 00:31:10;;;;;;;;;;;22.10;56.70;;;;;;691788;28;795;-82
2022/04/30 00:31:31;;;;;;;;;;;22.10;56.70;;;;;;691840;28;815;-80
2022/04/30 00:31:52;;;;;;;;;;;22.10;56.60;;;;;;691974;28;918;-81
2022/04/30 00:32:13;;;;;;;;;;;22.10;56.80;;;;;;691666;28;879;-84
2022/04/30 00:32:33;;;;;;;;;;;22.10;56.80;;;;;;691962;28;835;-80
2022/04/30 00:32:54;;;;;;;;;;;22.10;57.00;;;;;;688679;28;1177;-86
2022/04/30 00:33:15;;;;;;;;;;;22.10;56.60;;;;;;688732;28;910;-89
2022/04/30 00:33:36;;;;;;;;;;;22.10;57.00;;;;;;689486;28;811;-85
2022/04/30 00:33:56;;;;;;;;;;;22.10;56.90;;;;;;688668;28;902;-82
2022/04/30 00:34:17;;;;;;;;;;;22.10;56.70;;;;;;689152;28;515;-86
2022/04/30 00:34:37;;;;;;;;;;;22.10;56.60;;;;;;689248;28;1957;-86
2022/04/30 00:34:58;;;;;;;;;;;22.10;56.60;;;;;;691719;28;862;-83
2022/04/30 00:35:19;;;;;;;;;;;22.10;56.50;;;;;;691503;28;799;-80
2022/04/30 00:35:40;;;;;;;;;;;22.10;56.50;;;;;;691899;28;931;-84
2022/04/30 00:36:02;;;;;;;;;;;22.20;56.50;;;;;;691681;28;906;-85
2022/04/30 00:36:22;;;;;;;;;;;22.10;56.40;;;;;;691591;28;819;-84
2022/04/30 00:36:43;;;;;;;;;;;22.20;56.50;;;;;;691971;28;902;-84
2022/04/30 00:37:04;;;;;;;;;;;22.10;56.40;;;;;;691840;28;970;-85
2022/04/30 00:37:26;;;;;;;;;;;22.20;56.50;;;;;;691740;28;1084;-86
2022/04/30 00:37:46;;;;;;;;;;;22.20;56.50;;;;;;691519;28;889;-83
2022/04/30 00:38:07;;;;;;;;;;;22.20;56.50;;;;;;691771;28;523;-82
2022/04/30 00:38:28;;;;;;;;;;;22.20;56.50;;;;;;691533;28;873;-87
2022/04/30 00:38:48;;;;;;;;;;;22.20;57.20;;;;;;691582;28;850;-82
2022/04/30 00:39:09;;;;;;;;;;;22.20;56.40;;;;;;688629;28;1426;-82
2022/04/30 00:39:32;;;;;;;;;;;22.10;56.40;;;;;;688629;28;970;-83
2022/04/30 00:39:53;;;;;;;;;;;22.20;56.30;;;;;;688682;28;879;-81
2022/04/30 00:40:14;;;;;;;;;;;22.20;56.40;;;;;;688692;28;902;-81
2022/04/30 00:40:34;;;;;;;;;;;22.20;56.30;;;;;;688563;28;918;-83
2022/04/30 00:40:55;;;;;;;;;;;22.20;56.40;;;;;;689401;28;803;-82
2022/04/30 00:41:16;;;;;;;;;;;22.20;56.30;;;;;;688551;28;1383;-82
2022/04/30 00:41:40;;;;;;;;;;;22.20;56.30;;;;;;688734;28;918;-82
2022/04/30 00:42:01;;;;;;;;;;;22.20;56.30;;;;;;688653;28;839;-83
2022/04/30 00:42:22;;;;;;;;;;;22.20;56.30;;;;;;688659;28;946;-86
2022/04/30 00:42:42;;;;;;;;;;;22.20;56.30;;;;;;688633;28;949;-84
2022/04/30 00:43:03;;;;;;;;;;;22.20;56.30;;;;;;689647;28;811;-82
2022/04/30 00:43:24;;;;;;;;;;;22.80;56.70;;;;;;691664;28;795;-82
2022/04/30 00:43:45;;;;;;;;;;;22.20;56.20;;;;;;691436;28;835;-83
2022/04/30 00:44:05;;;;;;;;;;;22.20;56.20;;;;;;691622;28;772;-84
2022/04/30 00:44:27;;;;;;;;;;;22.20;56.20;;;;;;691629;28;878;-81
2022/04/30 00:44:49;;;;;;;;;;;22.20;56.20;;;;;;691268;28;1115;-85
2022/04/30 00:45:10;;;;;;;;;;;22.20;56.20;;;;;;688508;28;921;-83
2022/04/30 00:45:31;;;;;;;;;;;22.20;56.20;;;;;;688628;28;807;-84
2022/04/30 00:45:51;;;;;;;;;;;22.20;56.20;;;;;;688610;28;803;-82
2022/04/30 00:46:15;;;;;;;;;;;22.20;56.30;;;;;;688598;28;854;-86
2022/04/30 00:46:35;;;;;;;;;;;24.70;57.60;;;;;;688703;28;835;-85
2022/04/30 00:46:57;;;;;;;;;;;22.20;56.20;;;;;;689354;28;898;-83
2022/04/30 00:47:18;;;;;;;;;;;22.20;56.20;;;;;;691479;28;887;-84
2022/04/30 00:47:39;;;;;;;;;;;22.20;56.20;;;;;;691621;28;815;-85
2022/04/30 00:48:00;;;;;;;;;;;22.20;56.20;;;;;;691412;28;855;-87
2022/04/30 00:48:21;;;;;;;;;;;22.20;56.20;;;;;;691441;28;930;-84
2022/04/30 00:48:42;;;;;;;;;;;22.20;56.10;;;;;;691588;28;878;-83
2022/04/30 00:49:03;;;;;;;;;;;22.20;56.20;;;;;;691622;28;795;-82
2022/04/30 00:49:23;;;;;;;;;;;22.20;56.20;;;;;;691515;28;834;-85
2022/04/30 00:49:45;;;;;;;;;;;22.20;56.20;;;;;;691438;28;886;-82
2022/04/30 00:50:06;;;;;;;;;;;22.20;56.20;;;;;;691625;28;827;-85
2022/04/30 00:50:28;;;;;;;;;;;22.10;56.10;;;;;;691549;28;808;-83
2022/04/30 00:50:49;;;;;;;;;;;22.20;56.20;;;;;;691383;28;799;-82
2022/04/30 00:51:11;;;;;;;;;;;22.20;56.20;;;;;;691544;28;863;-81
2022/04/30 00:51:32;;;;;;;;;;;21.80;56.00;;;;;;691661;28;906;-82
2022/04/30 00:51:54;;;;;;;;;;;22.20;56.20;;;;;;691449;28;835;-82
2022/04/30 00:52:15;;;;;;;;;;;22.20;56.30;;;;;;691624;28;795;-82
2022/04/30 00:52:37;;;;;;;;;;;22.20;56.20;;;;;;691695;28;795;-80
2022/04/30 00:52:58;;;;;;;;;;;22.20;56.30;;;;;;688644;28;930;-82
2022/04/30 00:53:21;;;;;;;;;;;22.20;56.30;;;;;;688474;28;943;-82
2022/04/30 00:53:45;;;;;;;;;;;22.10;56.20;;;;;;688775;28;803;-81
2022/04/30 00:54:07;;;;;;;;;;;22.20;56.30;;;;;;689513;28;894;-80
2022/04/30 00:54:29;;;;;;;;;;;22.10;56.30;;;;;;689477;28;811;-81
2022/04/30 00:54:49;;;;;;;;;;;22.10;56.20;;;;;;690846;28;1959;-80
2022/04/30 00:55:11;;;;;;;;;;;21.10;55.60;;;;;;692019;28;780;-80
2022/04/30 00:55:32;;;;;;;;;;;22.10;56.30;;;;;;692593;28;894;-80
2022/04/30 00:55:55;;;;;;;;;;;22.10;56.30;;;;;;692677;28;1068;-84
2022/04/30 00:56:17;;;;;;;;;;;22.10;56.30;;;;;;692274;28;1005;-80
2022/04/30 00:56:44;;;;;;;;;;;22.10;56.20;;;;;;692424;28;902;-81
2022/04/30 00:57:06;;;;;;;;;;;22.10;56.30;;;;;;691752;28;823;-81
2022/04/30 00:57:27;;;;;;;;;;;22.10;56.30;;;;;;691735;28;827;-82
2022/04/30 00:57:49;;;;;;;;;;;22.10;56.20;;;;;;691624;28;855;-81
2022/04/30 00:58:11;;;;;;;;;;;22.10;56.10;;;;;;691733;28;748;-81
2022/04/30 00:58:32;;;;;;;;;;;22.20;56.20;;;;;;691918;28;806;-84
2022/04/30 00:58:54;;;;;;;;;;;22.10;56.20;;;;;;691720;28;823;-81
2022/04/30 00:59:19;;;;;;;;;;;22.10;56.30;;;;;;691555;28;835;-83
2022/04/30 00:59:40;;;;;;;;;;;22.10;56.20;;;;;;691570;28;862;-82
2022/04/30 01:00:01;;;;;;;;;;;22.10;56.10;;;;;;691375;28;899;-82
2022/04/30 01:00:22;;;;;;;;;;;22.10;56.30;;;;;;691390;28;812;-83
2022/04/30 01:00:44;;;;;;;;;;;22.10;56.20;;;;;;688579;28;843;-85
2022/04/30 01:01:05;;;;;;;;;;;22.10;56.30;;;;;;688573;28;831;-81
2022/04/30 01:01:26;;;;;;;;;;;22.10;56.10;;;;;;688554;28;949;-81
2022/04/30 01:01:48;;;;;;;;;;;22.10;56.10;;;;;;688514;28;792;-83
2022/04/30 01:02:11;;;;;;;;;;;22.10;56.20;;;;;;688671;28;889;-83
2022/04/30 01:02:32;;;;;;;;;;;22.10;56.20;;;;;;688645;28;816;-83
2022/04/30 01:02:53;;;;;;;;;;;22.10;56.20;;;;;;689675;28;815;-83
2022/04/30 01:03:14;;;;;;;;;;;22.10;56.30;;;;;;688405;28;1348;-83
2022/04/30 01:03:34;;;;;;;;;;;22.10;56.20;;;;;;688694;28;800;-86
2022/04/30 01:03:55;;;;;;;;;;;22.10;56.10;;;;;;688239;28;1409;-81
2022/04/30 01:04:16;;;;;;;;;;;22.10;56.10;;;;;;688483;28;850;-82
2022/04/30 01:04:37;;;;;;;;;;;22.10;56.30;;;;;;688572;28;776;-82
2022/04/30 01:04:58;;;;;;;;;;;22.10;56.30;;;;;;688899;28;910;-83
2022/04/30 01:05:18;;;;;;;;;;;22.10;56.10;;;;;;691478;28;802;-85
2022/04/30 01:05:39;;;;;;;;;;;22.10;56.20;;;;;;691491;28;815;-82
2022/04/30 01:06:00;;;;;;;;;;;22.10;56.00;;;;;;691247;28;854;-85
2022/04/30 01:06:25;;;;;;;;;;;22.10;56.00;;;;;;691354;28;835;-82
2022/04/30 01:06:56;;;;;;;;;;;22.10;56.10;;;;;;691461;28;850;-83
2022/04/30 01:07:17;;;;;;;;;;;22.10;56.10;;;;;;691446;28;843;-84
2022/04/30 01:07:39;;;;;;;;;;;22.10;56.10;;;;;;691521;28;941;-87
2022/04/30 01:07:59;;;;;;;;;;;22.10;56.10;;;;;;691278;28;894;-83
2022/04/30 01:08:20;;;;;;;;;;;22.10;56.30;;;;;;691336;28;894;-83
2022/04/30 01:08:41;;;;;;;;;;;22.10;56.10;;;;;;691526;28;941;-83
2022/04/30 01:09:03;;;;;;;;;;;22.10;56.20;;;;;;691507;28;827;-82
2022/04/30 01:09:24;;;;;;;;;;;22.10;56.10;;;;;;691350;28;950;-88
2022/04/30 01:09:46;;;;;;;;;;;22.10;56.10;;;;;;691350;28;891;-82
2022/04/30 01:10:09;;;;;;;;;;;22.10;56.10;;;;;;691482;28;1004;-83
2022/04/30 01:10:32;;;;;;;;;;;22.10;56.10;;;;;;691272;28;794;-82
2022/04/30 01:10:56;;;;;;;;;;;22.10;56.10;;;;;;691452;28;799;-84
2022/04/30 01:11:17;;;;;;;;;;;22.10;56.10;;;;;;691396;28;818;-83
2022/04/30 01:11:37;;;;;;;;;;;22.10;56.20;;;;;;691558;28;815;-84
2022/04/30 01:12:03;;;;;;;;;;;22.10;56.10;;;;;;691423;28;872;-87
2022/04/30 01:12:23;;;;;;;;;;;22.10;56.10;;;;;;691332;28;858;-84
2022/04/30 01:12:45;;;;;;;;;;;22.00;56.00;;;;;;691559;28;976;-83
2022/04/30 01:13:07;;;;;;;;;;;22.00;55.90;;;;;;691413;28;929;-82
2022/04/30 01:13:28;;;;;;;;;;;22.00;56.00;;;;;;688398;28;1474;-82
2022/04/30 01:13:49;;;;;;;;;;;22.10;56.10;;;;;;688534;28;779;-83
2022/04/30 01:14:09;;;;;;;;;;;22.00;56.10;;;;;;688642;28;829;-83
2022/04/30 01:14:31;;;;;;;;;;;22.10;56.10;;;;;;688518;28;873;-82
2022/04/30 01:14:52;;;;;;;;;;;22.00;56.00;;;;;;688525;28;1963;-81
2022/04/30 01:15:13;;;;;;;;;;;22.10;56.00;;;;;;689287;28;775;-83
2022/04/30 01:15:34;;;;;;;;;;;22.00;56.00;;;;;;691547;28;897;-82
2022/04/30 01:16:00;;;;;;;;;;;22.10;56.00;;;;;;691385;28;835;-82
2022/04/30 01:16:21;;;;;;;;;;;22.10;56.10;;;;;;691358;28;894;-83
2022/04/30 01:16:43;;;;;;;;;;;22.00;56.10;;;;;;691607;28;810;-83
2022/04/30 01:17:05;;;;;;;;;;;22.00;56.10;;;;;;691468;28;906;-81
2022/04/30 01:17:26;;;;;;;;;;;22.00;56.10;;;;;;688399;28;1515;-84
2022/04/30 01:17:46;;;;;;;;;;;22.00;56.20;;;;;;688422;28;847;-84
2022/04/30 01:18:08;;;;;;;;;;;22.10;56.20;;;;;;688679;28;819;-83
2022/04/30 01:18:29;;;;;;;;;;;22.10;56.30;;;;;;688461;28;845;-82
2022/04/30 01:18:50;;;;;;;;;;;22.10;56.20;;;;;;688568;28;925;-81
2022/04/30 01:19:16;;;;;;;;;;;23.70;57.50;;;;;;688540;28;1305;-83
2022/04/30 01:19:39;;;;;;;;;;;22.10;56.50;;;;;;688628;28;819;-82
2022/04/30 01:20:00;;;;;;;;;;;22.00;56.20;;;;;;688633;28;836;-83
2022/04/30 01:20:21;;;;;;;;;;;22.00;56.20;;;;;;688481;28;972;-85
2022/04/30 01:20:50;;;;;;;;;;;22.00;56.10;;;;;;688589;28;792;-85
2022/04/30 01:21:11;;;;;;;;;;;22.00;56.20;;;;;;691316;28;799;-82
2022/04/30 01:21:32;;;;;;;;;;;22.10;56.00;;;;;;691435;28;553;-82
2022/04/30 01:21:54;;;;;;;;;;;22.00;56.10;;;;;;691462;28;823;-82
2022/04/30 01:22:26;;;;;;;;;;;22.00;56.10;;;;;;691358;28;891;-86
2022/04/30 01:23:03;;;;;;;;;;;22.00;56.20;;;;;;691355;28;1027;-82
2022/04/30 01:23:26;;;;;;;;;;;22.00;56.10;;;;;;691379;28;815;-83
2022/04/30 01:23:46;;;;;;;;;;;22.00;56.20;;;;;;691396;28;834;-84
2022/04/30 01:24:07;;;;;;;;;;;22.00;56.30;;;;;;691527;28;783;-87
2022/04/30 01:24:28;;;;;;;;;;;22.00;56.20;;;;;;691306;28;929;-83
2022/04/30 01:24:49;;;;;;;;;;;22.00;56.20;;;;;;691353;28;846;-82
2022/04/30 01:25:12;;;;;;;;;;;22.00;56.20;;;;;;691468;28;853;-84
2022/04/30 01:25:33;;;;;;;;;;;22.00;56.20;;;;;;691413;28;941;-84
2022/04/30 01:25:54;;;;;;;;;;;22.00;56.10;;;;;;691468;28;640;-85
2022/04/30 01:26:14;;;;;;;;;;;22.00;56.00;;;;;;691434;28;826;-81
2022/04/30 01:26:36;;;;;;;;;;;22.00;56.10;;;;;;688533;28;1397;-81
2022/04/30 01:26:57;;;;;;;;;;;22.00;56.10;;;;;;688474;28;803;-82
2022/04/30 01:27:18;;;;;;;;;;;22.00;56.20;;;;;;688443;28;795;-82
2022/04/30 01:27:40;;;;;;;;;;;22.00;56.20;;;;;;688651;28;779;-85
2022/04/30 01:28:01;;;;;;;;;;;22.00;56.20;;;;;;688495;28;934;-83
2022/04/30 01:28:22;;;;;;;;;;;22.00;56.10;;;;;;689309;28;775;-84
2022/04/30 01:28:46;;;;;;;;;;;22.00;56.10;;;;;;691449;28;873;-82
2022/04/30 01:29:08;;;;;;;;;;;22.00;56.10;;;;;;691431;28;908;-82
2022/04/30 01:29:33;;;;;;;;;;;22.00;56.20;;;;;;691308;28;826;-83
2022/04/30 01:29:54;;;;;;;;;;;22.00;56.30;;;;;;691434;28;830;-83
2022/04/30 01:30:17;;;;;;;;;;;22.00;56.30;;;;;;691442;28;807;-82
2022/04/30 01:30:38;;;;;;;;;;;22.00;56.60;;;;;;691468;28;853;-84
2022/04/30 01:30:58;;;;;;;;;;;22.00;56.60;;;;;;691359;28;871;-82
2022/04/30 01:37:25;;;;;;;;;;;22.00;56.20;;;;;;691343;28;645;-82
2022/04/30 01:37:46;;;;;;;;;;;22.00;56.30;;;;;;691333;28;803;-82
2022/04/30 01:38:07;;;;;;;;;;;22.00;56.30;;;;;;691500;28;918;-82
2022/04/30 01:38:28;;;;;;;;;;;22.00;56.30;;;;;;691394;28;850;-84
2022/04/30 01:38:48;;;;;;;;;;;22.00;56.30;;;;;;691339;28;775;-83
2022/04/30 01:39:10;;;;;;;;;;;22.00;56.30;;;;;;691437;28;834;-85
2022/04/30 01:39:30;;;;;;;;;;;22.00;56.40;;;;;;691378;28;910;-83
2022/04/30 01:40:01;;;;;;;;;;;22.00;56.30;;;;;;691274;28;902;-82
2022/04/30 01:40:22;;;;;;;;;;;22.00;56.30;;;;;;691393;28;819;-80
2022/04/30 01:40:42;;;;;;;;;;;22.00;56.30;;;;;;691439;28;874;-82
2022/04/30 01:41:03;;;;;;;;;;;22.00;56.30;;;;;;691511;28;881;-84
2022/04/30 01:41:24;;;;;;;;;;;22.00;56.30;;;;;;691372;28;870;-83
2022/04/30 01:41:46;;;;;;;;;;;22.00;57.50;;;;;;691340;28;791;-82
2022/04/30 01:42:11;;;;;;;;;;;22.00;56.40;;;;;;691422;28;823;-86
2022/04/30 01:42:37;;;;;;;;;;;22.00;56.30;;;;;;691474;28;910;-82
2022/04/30 01:43:01;;;;;;;;;;;22.00;56.30;;;;;;691453;28;815;-82
2022/04/30 01:43:22;;;;;;;;;;;21.90;56.30;;;;;;691390;28;815;-85
2022/04/30 01:43:43;;;;;;;;;;;21.90;56.30;;;;;;691706;28;814;-82
2022/04/30 01:44:03;;;;;;;;;;;22.00;56.30;;;;;;692543;28;886;-82
2022/04/30 01:44:24;;;;;;;;;;;22.00;56.30;;;;;;692702;28;918;-82
2022/04/30 01:44:47;;;;;;;;;;;21.90;56.30;;;;;;692470;28;1009;-82
2022/04/30 01:45:08;;;;;;;;;;;21.90;56.20;;;;;;689418;28;1760;-82
2022/04/30 01:45:29;;;;;;;;;;;22.00;56.30;;;;;;689966;28;812;-82
2022/04/30 01:45:50;;;;;;;;;;;21.90;56.30;;;;;;689413;28;922;-82
2022/04/30 01:46:12;;;;;;;;;;;21.90;56.30;;;;;;689698;28;826;-82
2022/04/30 01:46:33;;;;;;;;;;;21.90;56.20;;;;;;689674;28;865;-82
2022/04/30 01:46:55;;;;;;;;;;;21.90;56.30;;;;;;690526;28;882;-82
2022/04/30 01:47:16;;;;;;;;;;;22.00;56.30;;;;;;692552;28;873;-80
2022/04/30 01:47:38;;;;;;;;;;;22.00;56.30;;;;;;692831;28;835;-81
2022/04/30 01:48:00;;;;;;;;;;;21.90;56.30;;;;;;692390;28;795;-81
2022/04/30 01:48:21;;;;;;;;;;;21.90;56.30;;;;;;692256;28;839;-81
2022/04/30 01:48:41;;;;;;;;;;;21.90;56.50;;;;;;692523;28;997;-82
2022/04/30 01:49:04;;;;;;;;;;;21.90;56.40;;;;;;692340;28;1112;-82
2022/04/30 01:49:25;;;;;;;;;;;21.90;56.70;;;;;;692664;28;815;-81
2022/04/30 01:49:45;;;;;;;;;;;21.90;56.30;;;;;;692228;28;863;-81
2022/04/30 01:50:07;;;;;;;;;;;22.00;57.50;;;;;;689569;28;1129;-81
2022/04/30 01:50:27;;;;;;;;;;;22.00;56.30;;;;;;689510;28;831;-81
2022/04/30 01:50:48;;;;;;;;;;;22.00;56.30;;;;;;689245;28;850;-80
2022/04/30 01:51:11;;;;;;;;;;;21.90;56.30;;;;;;689508;28;914;-80
2022/04/30 01:51:32;;;;;;;;;;;21.90;56.30;;;;;;689422;28;878;-81
2022/04/30 01:51:53;;;;;;;;;;;22.00;56.30;;;;;;690331;28;791;-80
2022/04/30 01:52:14;;;;;;;;;;;22.00;56.30;;;;;;692279;28;874;-81
2022/04/30 01:52:36;;;;;;;;;;;21.90;56.30;;;;;;692170;28;842;-80
2022/04/30 01:52:56;;;;;;;;;;;21.90;56.30;;;;;;692427;28;956;-78
2022/04/30 01:53:17;;;;;;;;;;;22.00;56.30;;;;;;689123;28;1278;-81
2022/04/30 01:53:38;;;;;;;;;;;21.90;56.50;;;;;;689226;28;795;-83
2022/04/30 01:53:59;;;;;;;;;;;22.00;56.50;;;;;;689118;28;843;-80
2022/04/30 01:54:19;;;;;;;;;;;21.90;56.40;;;;;;688800;28;941;-81
2022/04/30 01:54:40;;;;;;;;;;;22.00;56.30;;;;;;689349;28;1906;-81
2022/04/30 01:55:01;;;;;;;;;;;22.00;56.40;;;;;;688983;28;780;-81
2022/04/30 01:55:21;;;;;;;;;;;22.00;56.50;;;;;;688643;28;1042;-81
2022/04/30 01:55:42;;;;;;;;;;;22.00;56.40;;;;;;689251;28;882;-81
2022/04/30 01:56:02;;;;;;;;;;;22.00;56.70;;;;;;689322;28;946;-80
2022/04/30 01:56:23;;;;;;;;;;;21.90;56.30;;;;;;692103;28;858;-81
2022/04/30 01:56:44;;;;;;;;;;;21.90;56.30;;;;;;692289;28;889;-81
2022/04/30 01:57:05;;;;;;;;;;;21.90;56.30;;;;;;692053;28;823;-81
2022/04/30 01:57:26;;;;;;;;;;;21.90;56.30;;;;;;692572;28;803;-81
2022/04/30 01:57:47;;;;;;;;;;;21.90;56.30;;;;;;692215;28;832;-80
2022/04/30 01:58:07;;;;;;;;;;;22.00;56.60;;;;;;692022;28;1012;-82
2022/04/30 01:58:28;;;;;;;;;;;21.90;56.30;;;;;;691758;28;830;-81
2022/04/30 01:58:49;;;;;;;;;;;22.00;56.30;;;;;;691967;28;873;-82
2022/04/30 01:59:10;;;;;;;;;;;21.90;56.20;;;;;;692135;28;874;-82
2022/04/30 01:59:31;;;;;;;;;;;22.00;56.30;;;;;;692109;28;873;-82
2022/04/30 01:59:59;;;;;;;;;;;21.90;56.30;;;;;;691672;28;892;-81
2022/04/30 02:00:20;;;;;;;;;;;22.00;56.40;;;;;;692009;28;835;-81
2022/04/30 02:00:41;;;;;;;;;;;22.00;56.30;;;;;;692422;28;854;-82
2022/04/30 02:01:03;;;;;;;;;;;21.90;56.30;;;;;;689916;28;1216;-81
2022/04/30 02:01:24;;;;;;;;;;;21.90;56.20;;;;;;690593;28;854;-80
2022/04/30 02:01:44;;;;;;;;;;;21.90;56.30;;;;;;690687;28;831;-83
2022/04/30 02:02:05;;;;;;;;;;;21.90;56.30;;;;;;689915;28;1401;-79
2022/04/30 02:02:30;;;;;;;;;;;21.90;56.30;;;;;;689166;28;803;-80
2022/04/30 02:02:52;;;;;;;;;;;21.90;56.40;;;;;;690793;28;866;-81
2022/04/30 02:03:13;;;;;;;;;;;22.00;56.50;;;;;;692163;28;811;-82
2022/04/30 02:03:33;;;;;;;;;;;22.00;56.50;;;;;;692376;28;989;-81
2022/04/30 02:03:54;;;;;;;;;;;21.90;56.40;;;;;;692035;28;1138;-80
2022/04/30 02:04:15;;;;;;;;;;;21.90;56.40;;;;;;691944;28;927;-80
2022/04/30 02:04:35;;;;;;;;;;;22.00;56.40;;;;;;692332;28;913;-80
2022/04/30 02:04:57;;;;;;;;;;;22.00;56.30;;;;;;692598;28;791;-80
2022/04/30 02:05:19;;;;;;;;;;;22.00;56.50;;;;;;692392;28;940;-80
2022/04/30 02:05:40;;;;;;;;;;;22.00;56.70;;;;;;692254;28;905;-79
2022/04/30 02:06:02;;;;;;;;;;;22.00;56.40;;;;;;692085;28;808;-81
2022/04/30 02:06:23;;;;;;;;;;;22.00;56.50;;;;;;692040;28;752;-80
2022/04/30 02:06:45;;;;;;;;;;;22.00;56.30;;;;;;692281;28;949;-80
2022/04/30 02:07:05;;;;;;;;;;;22.00;56.40;;;;;;692189;28;1040;-82
2022/04/30 02:07:28;;;;;;;;;;;22.00;56.40;;;;;;692266;28;890;-81
2022/04/30 02:07:52;;;;;;;;;;;22.00;56.40;;;;;;692039;28;826;-80
2022/04/30 02:08:14;;;;;;;;;;;22.00;56.40;;;;;;692092;28;908;-80
2022/04/30 02:08:35;;;;;;;;;;;22.00;56.40;;;;;;692145;28;898;-80
2022/04/30 02:08:56;;;;;;;;;;;22.00;56.40;;;;;;692457;28;866;-79
2022/04/30 02:09:17;;;;;;;;;;;22.00;56.40;;;;;;691986;28;898;-80
2022/04/30 02:09:38;;;;;;;;;;;22.00;56.50;;;;;;692353;28;823;-80
2022/04/30 02:09:59;;;;;;;;;;;22.00;56.30;;;;;;692101;28;997;-79
2022/04/30 02:10:24;;;;;;;;;;;22.00;56.30;;;;;;692238;28;1459;-80
2022/04/30 02:10:46;;;;;;;;;;;22.00;56.30;;;;;;692334;28;830;-81
2022/04/30 02:11:07;;;;;;;;;;;22.00;56.30;;;;;;692403;28;833;-80
2022/04/30 02:11:28;;;;;;;;;;;22.00;56.30;;;;;;688782;28;1291;-81
2022/04/30 02:11:48;;;;;;;;;;;22.00;56.30;;;;;;689419;28;1017;-80
2022/04/30 02:12:09;;;;;;;;;;;22.10;56.40;;;;;;689182;28;1052;-80
2022/04/30 02:12:31;;;;;;;;;;;22.00;56.20;;;;;;689124;28;799;-79
2022/04/30 02:12:52;;;;;;;;;;;22.00;56.30;;;;;;689552;28;803;-81
2022/04/30 02:13:13;;;;;;;;;;;22.00;56.20;;;;;;687384;28;891;-79
2022/04/30 02:13:36;;;;;;;;;;;22.00;56.20;;;;;;689243;28;934;-80
2022/04/30 02:13:58;;;;;;;;;;;22.00;56.20;;;;;;688946;28;819;-80
2022/04/30 02:14:19;;;;;;;;;;;22.00;56.20;;;;;;689048;28;1044;-80
2022/04/30 02:14:41;;;;;;;;;;;22.00;56.10;;;;;;689007;28;1949;-81
2022/04/30 02:15:01;;;;;;;;;;;22.00;56.20;;;;;;690482;28;804;-81
2022/04/30 02:15:23;;;;;;;;;;;22.00;56.10;;;;;;692263;28;957;-81
2022/04/30 02:15:45;;;;;;;;;;;22.00;56.10;;;;;;692026;28;894;-80
2022/04/30 02:16:06;;;;;;;;;;;22.00;56.10;;;;;;691943;28;776;-80
2022/04/30 02:16:30;;;;;;;;;;;22.00;56.10;;;;;;691774;28;1028;-79
2022/04/30 02:16:50;;;;;;;;;;;22.00;56.10;;;;;;691985;28;977;-80